createdAt,value
2023-05-02T00:00:16.094Z,98152.41
2023-05-02T00:03:05.990Z,98148.13
2023-05-02T00:05:38.802Z,98153.56
2023-05-02T00:08:10.735Z,98144.28
2023-05-02T00:10:39.742Z,98148.44
2023-05-02T00:13:08.164Z,98147.28
2023-05-02T00:15:36.795Z,98148.09
2023-05-02T00:18:05.463Z,98145.66
2023-05-02T00:20:34.186Z,98143.34
2023-05-02T00:23:02.481Z,98139.97
2023-05-02T00:25:33.152Z,98141.19
2023-05-02T00:28:01.325Z,98140.44
2023-05-02T00:30:30.233Z,98143.72
2023-05-02T00:32:58.657Z,98135.69
2023-05-02T00:35:27.400Z,98142.88
2023-05-02T00:37:55.854Z,98143.34
2023-05-02T00:40:24.467Z,98144.00
2023-05-02T00:42:54.761Z,98146.59
2023-05-02T00:45:23.368Z,98143.75
2023-05-02T00:47:52.070Z,98137.09
2023-05-02T00:50:21.045Z,98133.03
2023-05-02T00:52:49.415Z,98141.78
2023-05-02T00:55:18.643Z,98137.22
2023-05-02T00:57:46.992Z,98136.38
2023-05-02T01:00:17.227Z,98133.19
2023-05-02T01:02:50.168Z,98131.81
2023-05-02T01:05:23.159Z,98132.03
2023-05-02T01:08:03.127Z,98131.81
2023-05-02T01:10:43.479Z,98133.69
2023-05-02T01:13:15.053Z,98142.44
2023-05-02T01:15:46.899Z,98140.84
2023-05-02T01:18:16.439Z,98137.53
2023-05-02T01:20:46.305Z,98142.06
2023-05-02T01:23:19.209Z,98137.56
2023-05-02T01:25:57.873Z,98138.97
2023-05-02T01:28:33.074Z,98137.22
2023-05-02T01:31:06.076Z,98145.63
2023-05-02T01:33:36.728Z,98143.00
2023-05-02T01:36:06.292Z,98133.34
2023-05-02T01:38:36.388Z,98137.19
2023-05-02T01:41:07.377Z,98137.66
2023-05-02T01:43:36.776Z,98123.91
2023-05-02T01:46:08.662Z,98130.28
2023-05-02T01:48:38.222Z,98133.84
2023-05-02T01:51:08.078Z,98131.09
2023-05-02T01:53:37.086Z,98130.78
2023-05-02T01:56:06.343Z,98134.66
2023-05-02T01:58:34.836Z,98136.66
2023-05-02T02:01:05.603Z,98129.63
2023-05-02T02:03:35.639Z,98132.03
2023-05-02T02:06:07.123Z,98131.41
2023-05-02T02:08:35.566Z,98123.19
2023-05-02T02:11:10.899Z,98135.13
2023-05-02T02:13:42.424Z,98124.91
2023-05-02T02:16:13.822Z,98136.66
2023-05-02T02:18:44.732Z,98124.75
2023-05-02T02:21:13.627Z,98121.94
2023-05-02T02:23:44.103Z,98128.00
2023-05-02T02:26:14.084Z,98128.53
2023-05-02T02:28:42.956Z,98133.50
2023-05-02T02:31:11.607Z,98132.31
2023-05-02T02:33:40.105Z,98137.34
2023-05-02T02:36:15.762Z,98135.72
2023-05-02T02:38:48.306Z,98132.97
2023-05-02T02:41:21.730Z,98133.66
2023-05-02T02:43:55.406Z,98129.72
2023-05-02T02:46:31.699Z,98134.69
2023-05-02T02:49:14.119Z,98137.22
2023-05-02T02:51:47.235Z,98136.00
2023-05-02T02:54:27.178Z,98129.91
2023-05-02T02:57:01.680Z,98140.06
2023-05-02T02:59:32.178Z,98138.44
2023-05-02T03:02:05.794Z,98143.84
2023-05-02T03:04:35.844Z,98142.09
2023-05-02T03:07:06.230Z,98141.16
2023-05-02T03:09:44.793Z,98145.41
2023-05-02T03:12:13.897Z,98139.31
2023-05-02T03:14:42.711Z,98138.91
2023-05-02T03:17:11.301Z,98145.16
2023-05-02T03:19:39.693Z,98152.47
2023-05-02T03:22:09.850Z,98144.78
2023-05-02T03:24:38.178Z,98148.06
2023-05-02T03:27:07.276Z,98146.00
2023-05-02T03:29:35.691Z,98144.94
2023-05-02T03:32:04.377Z,98146.91
2023-05-02T03:34:33.499Z,98142.22
2023-05-02T03:37:01.989Z,98142.84
2023-05-02T03:39:32.177Z,98148.44
2023-05-02T03:42:00.978Z,98144.59
2023-05-02T03:44:29.384Z,98145.84
2023-05-02T03:46:58.138Z,98137.88
2023-05-02T03:49:26.499Z,98139.44
2023-05-02T03:51:55.371Z,98134.19
2023-05-02T03:54:24.133Z,98135.53
2023-05-02T03:56:55.014Z,98137.16
2023-05-02T03:59:23.454Z,98133.41
2023-05-02T04:01:52.095Z,98137.13
2023-05-02T04:04:20.531Z,98144.78
2023-05-02T04:06:49.525Z,98138.16
2023-05-02T04:09:19.478Z,98148.28
2023-05-02T04:11:48.214Z,98145.78
2023-05-02T04:14:18.026Z,98148.69
2023-05-02T04:16:49.829Z,98149.22
2023-05-02T04:19:19.287Z,98150.03
2023-05-02T04:21:48.173Z,98159.94
2023-05-02T04:24:16.904Z,98146.31
2023-05-02T04:26:47.739Z,98164.88
2023-05-02T04:29:17.943Z,98154.09
2023-05-02T04:31:46.545Z,98156.41
2023-05-02T04:34:14.867Z,98159.31
2023-05-02T04:36:43.349Z,98168.47
2023-05-02T04:39:11.769Z,98161.53
2023-05-02T04:41:40.405Z,98168.09
2023-05-02T04:44:08.755Z,98167.38
2023-05-02T04:46:38.737Z,98165.44
2023-05-02T04:49:07.225Z,98166.38
2023-05-02T04:51:35.954Z,98160.69
2023-05-02T04:54:04.372Z,98172.50
2023-05-02T04:56:32.924Z,98161.66
2023-05-02T04:59:01.626Z,98163.91
2023-05-02T05:01:30.450Z,98179.81
2023-05-02T05:04:00.462Z,98168.38
2023-05-02T05:06:29.232Z,98172.50
2023-05-02T05:08:57.568Z,98166.59
2023-05-02T05:11:27.240Z,98178.13
2023-05-02T05:13:55.566Z,98177.56
2023-05-02T05:16:24.511Z,98184.03
2023-05-02T05:18:54.180Z,98183.31
2023-05-02T05:21:24.221Z,98184.50
2023-05-02T05:23:52.575Z,98187.41
2023-05-02T05:26:21.493Z,98194.19
2023-05-02T05:28:50.933Z,98181.22
2023-05-02T05:31:21.179Z,98184.06
2023-05-02T05:33:49.640Z,98192.75
2023-05-02T05:36:19.145Z,98187.53
2023-05-02T05:38:49.248Z,98188.94
2023-05-02T05:41:18.212Z,98188.31
2023-05-02T05:43:46.546Z,98187.09
2023-05-02T05:46:15.396Z,98194.69
2023-05-02T05:48:43.939Z,98189.03
2023-05-02T05:51:12.816Z,98198.84
2023-05-02T05:53:41.320Z,98194.97
2023-05-02T05:56:12.112Z,98183.28
2023-05-02T05:58:42.801Z,98195.78
2023-05-02T06:01:11.885Z,98191.69
2023-05-02T06:03:40.267Z,98190.94
2023-05-02T06:06:09.382Z,98186.44
2023-05-02T06:08:38.023Z,98194.38
2023-05-02T06:11:12.095Z,98192.47
2023-05-02T06:13:40.606Z,98198.56
2023-05-02T06:16:09.514Z,98196.72
2023-05-02T06:18:38.007Z,98204.66
2023-05-02T06:21:07.548Z,98199.94
2023-05-02T06:23:38.571Z,98210.06
2023-05-02T06:26:07.353Z,98207.06
2023-05-02T06:28:37.699Z,98209.22
2023-05-02T06:31:07.184Z,98205.00
2023-05-02T06:33:35.823Z,98215.97
2023-05-02T06:36:05.025Z,98221.94
2023-05-02T06:38:33.417Z,98220.19
2023-05-02T06:41:02.445Z,98218.22
2023-05-02T06:43:31.000Z,98227.28
2023-05-02T06:46:02.971Z,98238.78
2023-05-02T06:48:31.373Z,98237.19
2023-05-02T06:51:00.123Z,98235.84
2023-05-02T06:53:29.417Z,98239.63
2023-05-02T06:55:59.080Z,98237.59
2023-05-02T06:58:27.918Z,98240.44
2023-05-02T07:00:56.774Z,98235.47
2023-05-02T07:03:26.657Z,98248.78
2023-05-02T07:05:55.294Z,98243.97
2023-05-02T07:08:24.031Z,98239.28
2023-05-02T07:10:53.018Z,98249.56
2023-05-02T07:13:21.350Z,98251.06
2023-05-02T07:15:50.851Z,98258.00
2023-05-02T07:18:19.417Z,98258.16
2023-05-02T07:20:49.431Z,98257.09
2023-05-02T07:23:17.819Z,98257.97
2023-05-02T07:25:46.988Z,98259.50
2023-05-02T07:28:15.491Z,98271.16
2023-05-02T07:30:44.497Z,98273.75
2023-05-02T07:33:13.245Z,98272.59
2023-05-02T07:35:41.947Z,98280.44
2023-05-02T07:38:11.874Z,98272.91
2023-05-02T07:40:40.638Z,98270.31
2023-05-02T07:43:11.076Z,98281.09
2023-05-02T07:45:40.076Z,98277.88
2023-05-02T07:48:08.748Z,98279.53
2023-05-02T07:50:37.681Z,98276.72
2023-05-02T07:53:06.007Z,98280.09
2023-05-02T07:55:36.102Z,98271.97
2023-05-02T07:58:04.658Z,98284.59
2023-05-02T08:00:33.313Z,98280.41
2023-05-02T08:03:02.083Z,98278.97
2023-05-02T08:05:31.132Z,98276.31
2023-05-02T08:08:00.299Z,98284.22
2023-05-02T08:10:29.362Z,98286.53
2023-05-02T08:12:59.161Z,98284.09
2023-05-02T08:15:28.196Z,98282.09
2023-05-02T08:17:56.664Z,98274.09
2023-05-02T08:20:25.701Z,98265.41
2023-05-02T08:22:54.122Z,98268.91
2023-05-02T08:25:22.807Z,98272.72
2023-05-02T08:27:51.288Z,98270.31
2023-05-02T08:30:21.302Z,98270.03
2023-05-02T08:32:49.781Z,98274.53
2023-05-02T08:35:19.076Z,98271.63
2023-05-02T08:37:47.652Z,98270.03
2023-05-02T08:40:27.288Z,98278.13
2023-05-02T08:43:03.076Z,98267.13
2023-05-02T08:45:39.211Z,98280.50
2023-05-02T08:48:10.680Z,98279.75
2023-05-02T08:50:41.733Z,98281.75
2023-05-02T08:53:11.580Z,98278.81
2023-05-02T08:55:41.171Z,98272.16
2023-05-02T08:58:10.886Z,98275.81
2023-05-02T09:00:44.119Z,98275.84
2023-05-02T09:03:21.322Z,98282.97
2023-05-02T09:05:54.863Z,98284.13
2023-05-02T09:08:24.382Z,98289.19
2023-05-02T09:10:53.337Z,98273.78
2023-05-02T09:13:32.275Z,98287.81
2023-05-02T09:16:03.795Z,98283.38
2023-05-02T09:18:33.402Z,98280.78
2023-05-02T09:21:03.465Z,98280.78
2023-05-02T09:23:38.857Z,98279.50
2023-05-02T09:26:15.274Z,98283.00
2023-05-02T09:28:45.367Z,98282.84
2023-05-02T09:31:26.940Z,98290.97
2023-05-02T09:34:09.975Z,98290.41
2023-05-02T09:36:42.194Z,98294.50
2023-05-02T09:39:13.692Z,98291.34
2023-05-02T09:41:43.198Z,98294.38
2023-05-02T09:44:12.745Z,98299.84
2023-05-02T09:46:44.303Z,98303.38
2023-05-02T09:49:14.942Z,98302.19
2023-05-02T09:51:44.270Z,98293.19
2023-05-02T09:54:13.130Z,98296.78
2023-05-02T09:56:56.808Z,98307.03
2023-05-02T09:59:26.000Z,98300.88
2023-05-02T10:02:00.342Z,98304.91
2023-05-02T10:04:30.081Z,98305.09
2023-05-02T10:06:59.568Z,98304.69
2023-05-02T10:09:28.894Z,98295.78
2023-05-02T10:11:58.364Z,98314.78
2023-05-02T10:14:29.691Z,98308.84
2023-05-02T10:17:04.006Z,98307.53
2023-05-02T10:19:40.770Z,98304.59
2023-05-02T10:22:10.112Z,98321.84
2023-05-02T10:24:40.052Z,98321.69
2023-05-02T10:27:09.058Z,98322.25
2023-05-02T10:29:37.919Z,98318.59
2023-05-02T10:32:09.124Z,98324.97
2023-05-02T10:34:38.104Z,98323.13
2023-05-02T10:37:07.204Z,98320.81
2023-05-02T10:39:35.798Z,98322.97
2023-05-02T10:42:05.756Z,98333.69
2023-05-02T10:44:35.044Z,98326.34
2023-05-02T10:47:21.983Z,98335.09
2023-05-02T10:49:54.574Z,98338.81
2023-05-02T10:52:27.700Z,98329.97
2023-05-02T10:55:18.183Z,98334.34
2023-05-02T10:58:23.766Z,98338.75
2023-05-02T11:00:52.405Z,98336.09
2023-05-02T11:03:58.349Z,98331.91
2023-05-02T11:06:28.437Z,98348.31
2023-05-02T11:09:30.571Z,98338.94
2023-05-02T11:11:59.761Z,98337.63
2023-05-02T11:14:45.061Z,98339.72
2023-05-02T11:17:14.200Z,98342.31
2023-05-02T11:20:28.756Z,98348.22
2023-05-02T11:23:26.219Z,98347.63
2023-05-02T11:25:57.530Z,98347.28
2023-05-02T11:28:42.258Z,98356.06
2023-05-02T11:31:32.361Z,98350.38
2023-05-02T11:34:03.080Z,98366.22
2023-05-02T11:36:33.821Z,98360.28
2023-05-02T11:39:03.356Z,98369.13
2023-05-02T11:41:41.338Z,98373.91
2023-05-02T11:44:09.662Z,98371.88
2023-05-02T11:46:39.680Z,98377.25
2023-05-02T11:49:10.992Z,98378.34
2023-05-02T11:51:40.818Z,98386.19
2023-05-02T11:54:10.633Z,98375.94
2023-05-02T11:56:42.021Z,98383.06
2023-05-02T11:59:11.395Z,98388.88
2023-05-02T12:01:49.408Z,98384.06
2023-05-02T12:04:24.150Z,98383.34
2023-05-02T12:06:56.985Z,98385.84
2023-05-02T12:09:25.816Z,98386.31
2023-05-02T12:11:54.992Z,98385.88
2023-05-02T12:14:30.511Z,98388.81
2023-05-02T12:17:00.160Z,98385.81
2023-05-02T12:19:30.334Z,98386.69
2023-05-02T12:22:00.205Z,98375.72
2023-05-02T12:24:30.069Z,98385.63
2023-05-02T12:27:12.235Z,98385.88
2023-05-02T12:29:41.940Z,98389.41
2023-05-02T12:32:10.775Z,98389.16
2023-05-02T12:34:41.454Z,98390.38
2023-05-02T12:37:12.053Z,98390.88
2023-05-02T12:39:42.482Z,98396.53
2023-05-02T12:42:12.565Z,98398.97
2023-05-02T12:44:42.322Z,98401.97
2023-05-02T12:47:12.550Z,98408.50
2023-05-02T12:49:52.000Z,98400.56
2023-05-02T12:52:21.484Z,98405.84
2023-05-02T12:54:50.205Z,98407.50
2023-05-02T12:57:26.299Z,98412.06
2023-05-02T12:59:55.535Z,98410.84
2023-05-02T13:02:24.769Z,98411.78
2023-05-02T13:04:54.920Z,98413.50
2023-05-02T13:07:23.800Z,98412.56
2023-05-02T13:09:53.038Z,98408.84
2023-05-02T13:12:22.200Z,98409.16
2023-05-02T13:14:50.789Z,98410.69
2023-05-02T13:17:19.470Z,98399.50
2023-05-02T13:19:57.916Z,98401.09
2023-05-02T13:22:31.652Z,98398.31
2023-05-02T13:24:59.858Z,98404.19
2023-05-02T13:27:28.865Z,98405.84
2023-05-02T13:29:57.791Z,98401.66
2023-05-02T13:32:27.011Z,98408.72
2023-05-02T13:34:55.542Z,98402.09
2023-05-02T13:37:24.150Z,98404.63
2023-05-02T13:39:54.099Z,98403.59
2023-05-02T13:42:23.043Z,98403.75
2023-05-02T13:44:51.317Z,98401.34
2023-05-02T13:47:20.207Z,98409.50
2023-05-02T13:49:48.533Z,98404.78
2023-05-02T13:52:17.471Z,98413.25
2023-05-02T13:54:45.797Z,98415.31
2023-05-02T13:57:16.009Z,98417.97
2023-05-02T13:59:44.359Z,98425.84
2023-05-02T14:02:13.111Z,98422.31
2023-05-02T14:04:41.771Z,98426.06
2023-05-02T14:07:11.495Z,98426.53
2023-05-02T14:09:39.941Z,98430.56
2023-05-02T14:12:08.427Z,98434.59
2023-05-02T14:14:38.484Z,98424.56
2023-05-02T14:17:07.108Z,98433.28
2023-05-02T14:19:35.896Z,98425.63
2023-05-02T14:22:04.748Z,98430.75
2023-05-02T14:24:33.020Z,98434.06
2023-05-02T14:27:01.790Z,98430.84
2023-05-02T14:29:30.092Z,98429.66
2023-05-02T14:32:00.423Z,98440.63
2023-05-02T14:34:28.980Z,98429.66
2023-05-02T14:36:57.730Z,98432.88
2023-05-02T14:39:27.739Z,98436.47
2023-05-02T14:41:56.297Z,98438.09
2023-05-02T14:44:24.903Z,98444.53
2023-05-02T14:46:55.822Z,98445.03
2023-05-02T14:49:25.743Z,98450.63
2023-05-02T14:51:56.278Z,98454.03
2023-05-02T14:54:28.406Z,98471.34
2023-05-02T14:56:58.474Z,98472.78
2023-05-02T14:59:29.937Z,98476.53
2023-05-02T15:01:58.907Z,98477.00
2023-05-02T15:04:28.836Z,98475.19
2023-05-02T15:06:58.557Z,98475.81
2023-05-02T15:09:27.394Z,98484.16
2023-05-02T15:11:56.657Z,98481.72
2023-05-02T15:14:25.161Z,98479.25
2023-05-02T15:16:55.124Z,98493.72
2023-05-02T15:19:25.369Z,98494.03
2023-05-02T15:21:57.392Z,98498.59
2023-05-02T15:24:25.920Z,98495.78
2023-05-02T15:26:54.551Z,98493.38
2023-05-02T15:29:23.011Z,98501.97
2023-05-02T15:31:51.581Z,98506.47
2023-05-02T15:34:20.412Z,98511.38
2023-05-02T15:36:49.246Z,98517.25
2023-05-02T15:39:19.452Z,98533.16
2023-05-02T15:41:48.611Z,98531.25
2023-05-02T15:44:16.988Z,98548.69
2023-05-02T15:46:47.240Z,98550.88
2023-05-02T15:49:15.708Z,98552.25
2023-05-02T15:51:44.339Z,98551.66
2023-05-02T15:54:12.908Z,98561.16
2023-05-02T15:56:43.880Z,98559.63
2023-05-02T15:59:12.117Z,98561.47
2023-05-02T16:01:40.787Z,98572.00
2023-05-02T16:04:10.006Z,98575.97
2023-05-02T16:06:41.762Z,98575.38
2023-05-02T16:09:10.256Z,98577.59
2023-05-02T16:11:38.955Z,98569.25
2023-05-02T16:14:08.557Z,98557.13
2023-05-02T16:16:37.207Z,98555.16
2023-05-02T16:19:12.635Z,98545.47
2023-05-02T16:21:42.173Z,98550.81
2023-05-02T16:24:10.726Z,98566.44
2023-05-02T16:26:39.262Z,98558.13
2023-05-02T16:29:08.921Z,98567.47
2023-05-02T16:31:37.696Z,98569.44
2023-05-02T16:34:06.146Z,98575.25
2023-05-02T16:36:34.837Z,98578.44
2023-05-02T16:39:03.168Z,98574.53
2023-05-02T16:41:31.848Z,98577.66
2023-05-02T16:44:00.168Z,98574.53
2023-05-02T16:46:30.193Z,98584.78
2023-05-02T16:48:58.699Z,98582.81
2023-05-02T16:53:56.330Z,98588.16
2023-05-02T16:56:24.948Z,98592.13
2023-05-02T16:58:53.148Z,98592.41
2023-05-02T17:01:22.696Z,98601.97
2023-05-02T17:03:52.435Z,98604.28
2023-05-02T17:06:21.347Z,98607.56
2023-05-02T17:08:49.905Z,98616.31
2023-05-02T17:11:18.736Z,98607.13
2023-05-02T17:13:49.869Z,98597.31
2023-05-02T17:16:20.088Z,98598.00
2023-05-02T17:18:49.080Z,98607.81
2023-05-02T17:21:19.340Z,98620.47
2023-05-02T17:23:47.638Z,98626.88
2023-05-02T17:26:16.815Z,98632.19
2023-05-02T17:28:46.040Z,98632.66
2023-05-02T17:31:14.794Z,98630.94
2023-05-02T17:33:43.235Z,98647.69
2023-05-02T17:36:12.032Z,98639.59
2023-05-02T17:38:42.766Z,98636.06
2023-05-02T17:41:11.641Z,98628.59
2023-05-02T17:43:42.484Z,98630.03
2023-05-02T17:46:11.370Z,98630.63
2023-05-02T17:48:40.647Z,98642.63
2023-05-02T17:51:09.470Z,98643.38
2023-05-02T17:53:37.862Z,98650.47
2023-05-02T17:56:08.725Z,98654.75
2023-05-02T17:58:37.676Z,98659.16
2023-05-02T18:01:10.688Z,98663.13
2023-05-02T18:03:39.587Z,98665.25
2023-05-02T18:06:10.297Z,98671.25
2023-05-02T18:08:38.853Z,98679.16
2023-05-02T18:11:15.221Z,98677.34
2023-05-02T18:13:43.848Z,98679.19
2023-05-02T18:16:14.268Z,98676.94
2023-05-02T18:18:42.758Z,98680.72
2023-05-02T18:21:11.741Z,98682.78
2023-05-02T18:23:40.889Z,98688.84
2023-05-02T18:26:14.401Z,98691.25
2023-05-02T18:28:44.573Z,98702.69
2023-05-02T18:31:17.890Z,98698.66
2023-05-02T18:33:47.155Z,98699.53
2023-05-02T18:36:19.316Z,98705.69
2023-05-02T18:38:47.960Z,98707.41
2023-05-02T18:41:18.494Z,98714.28
2023-05-02T18:43:46.830Z,98708.16
2023-05-02T18:46:15.488Z,98717.28
2023-05-02T18:48:43.834Z,98714.91
2023-05-02T18:51:12.652Z,98721.91
2023-05-02T18:53:41.054Z,98729.13
2023-05-02T18:56:13.936Z,98722.91
2023-05-02T18:58:43.877Z,98730.09
2023-05-02T19:01:15.341Z,98734.59
2023-05-02T19:03:44.609Z,98731.94
2023-05-02T19:06:14.319Z,98729.59
2023-05-02T19:08:42.594Z,98733.09
2023-05-02T19:11:11.093Z,98739.72
2023-05-02T19:13:39.720Z,98736.00
2023-05-02T19:16:13.678Z,98734.03
2023-05-02T19:18:43.517Z,98732.63
2023-05-02T19:21:13.660Z,98729.88
2023-05-02T19:23:43.099Z,98732.16
2023-05-02T19:26:13.077Z,98733.72
2023-05-02T19:28:41.790Z,98735.13
2023-05-02T19:31:12.740Z,98730.31
2023-05-02T19:33:41.672Z,98730.03
2023-05-02T19:36:10.530Z,98732.06
2023-05-02T19:38:39.151Z,98734.81
2023-05-02T19:41:08.801Z,98736.56
2023-05-02T19:43:37.133Z,98737.81
2023-05-02T19:46:05.842Z,98743.16
2023-05-02T19:48:35.782Z,98738.09
2023-05-02T19:51:05.345Z,98736.94
2023-05-02T19:53:34.566Z,98742.69
2023-05-02T19:56:04.991Z,98738.44
2023-05-02T19:58:33.293Z,98743.97
2023-05-02T20:01:02.097Z,98740.03
2023-05-02T20:03:30.472Z,98744.72
2023-05-02T20:06:00.771Z,98746.13
2023-05-02T20:08:31.679Z,98745.94
2023-05-02T20:11:00.300Z,98750.69
2023-05-02T20:13:28.719Z,98739.69
2023-05-02T20:15:57.206Z,98751.63
2023-05-02T20:18:25.677Z,98753.13
2023-05-02T20:20:54.135Z,98750.91
2023-05-02T20:23:23.801Z,98761.25
2023-05-02T20:25:52.443Z,98755.97
2023-05-02T20:28:20.793Z,98763.66
2023-05-02T20:30:49.587Z,98758.94
2023-05-02T20:33:18.405Z,98768.59
2023-05-02T20:35:47.197Z,98760.72
2023-05-02T20:38:18.001Z,98762.28
2023-05-02T20:40:47.889Z,98752.94
2023-05-02T20:43:19.007Z,98773.47
2023-05-02T20:45:47.490Z,98776.66
2023-05-02T20:48:17.447Z,98779.47
2023-05-02T20:50:53.573Z,98775.59
2023-05-02T20:53:23.890Z,98781.88
2023-05-02T20:55:54.141Z,98783.59
2023-05-02T20:58:22.324Z,98780.13
2023-05-02T21:00:52.767Z,98784.41
2023-05-02T21:03:24.070Z,98787.25
2023-05-02T21:05:53.514Z,98787.84
2023-05-02T21:08:21.669Z,98786.16
2023-05-02T21:10:50.586Z,98794.97
2023-05-02T21:13:20.166Z,98799.59
2023-05-02T21:15:48.705Z,98792.13
2023-05-02T21:18:17.217Z,98794.75
2023-05-02T21:20:45.924Z,98795.91
2023-05-02T21:23:14.137Z,98801.97
2023-05-02T21:25:42.950Z,98800.88
2023-05-02T21:28:12.755Z,98797.47
2023-05-02T21:30:42.757Z,98804.47
2023-05-02T21:33:11.009Z,98805.50
2023-05-02T21:35:39.591Z,98805.13
2023-05-02T21:38:08.029Z,98809.91
2023-05-02T21:40:37.440Z,98814.13
2023-05-02T21:43:06.103Z,98814.19
2023-05-02T21:45:36.019Z,98812.38
2023-05-02T21:48:06.648Z,98809.28
2023-05-02T21:50:35.362Z,98811.22
2023-05-02T21:53:03.753Z,98806.53
2023-05-02T21:55:32.360Z,98816.81
2023-05-02T21:58:00.583Z,98825.19
2023-05-02T22:00:29.149Z,98832.19
2023-05-02T22:02:57.569Z,98836.63
2023-05-02T22:05:28.296Z,98831.81
2023-05-02T22:07:57.224Z,98837.47
2023-05-02T22:10:26.007Z,98840.75
2023-05-02T22:12:54.311Z,98844.00
2023-05-02T22:15:22.918Z,98846.94
2023-05-02T22:17:51.572Z,98847.91
2023-05-02T22:20:20.210Z,98843.66
2023-05-02T22:22:50.229Z,98846.41
2023-05-02T22:25:19.056Z,98847.25
2023-05-02T22:27:48.562Z,98855.38
2023-05-02T22:30:17.524Z,98855.25
2023-05-02T22:32:46.132Z,98847.94
2023-05-02T22:35:15.076Z,98849.72
2023-05-02T22:37:43.498Z,98844.13
2023-05-02T22:40:14.427Z,98851.63
2023-05-02T22:42:42.744Z,98847.59
2023-05-02T22:45:13.608Z,98846.75
2023-05-02T22:47:42.078Z,98852.47
2023-05-02T22:50:11.524Z,98848.53
2023-05-02T22:52:40.062Z,98848.06
2023-05-02T22:55:10.376Z,98861.97
2023-05-02T22:57:40.324Z,98856.91
2023-05-02T23:00:10.818Z,98855.09
2023-05-02T23:02:39.573Z,98855.22
2023-05-02T23:05:09.846Z,98856.53
2023-05-02T23:07:38.248Z,98856.81
2023-05-02T23:10:08.286Z,98854.75
2023-05-02T23:12:37.068Z,98855.53
2023-05-02T23:15:09.105Z,98850.50
2023-05-02T23:17:39.028Z,98856.84
2023-05-02T23:20:10.359Z,98857.84
2023-05-02T23:22:44.833Z,98857.56
2023-05-02T23:25:13.904Z,98859.31
2023-05-02T23:27:42.522Z,98860.25
2023-05-02T23:30:13.180Z,98855.25
2023-05-02T23:32:41.623Z,98855.69
2023-05-02T23:35:12.200Z,98852.28
2023-05-02T23:37:40.602Z,98850.94
2023-05-02T23:40:10.565Z,98846.88
2023-05-02T23:42:40.585Z,98845.28
2023-05-02T23:45:09.620Z,98840.56
2023-05-02T23:47:40.010Z,98850.72
2023-05-02T23:50:09.513Z,98840.25
2023-05-02T23:52:38.036Z,98845.50
2023-05-02T23:55:10.657Z,98837.97
2023-05-02T23:57:39.469Z,98838.19
